sensor_id;sensor_type;location;lat;lon;timestamp;temperature;humidity
6293;DHT22;3179;54.350;10.102;2022-08-04T00:01:34;23.20;99.90
6293;DHT22;3179;54.350;10.102;2022-08-04T00:04:10;23.10;99.90
6293;DHT22;3179;54.350;10.102;2022-08-04T00:06:47;23.10;99.90
6293;DHT22;3179;54.350;10.102;2022-08-04T00:09:24;23.10;99.90
6293;DHT22;3179;54.350;10.102;2022-08-04T00:11:57;23.10;99.90
6293;DHT22;3179;54.350;10.102;2022-08-04T00:14:29;23.00;99.90
6293;DHT22;3179;54.350;10.102;2022-08-04T00:17:03;23.00;99.90
6293;DHT22;3179;54.350;10.102;2022-08-04T00:19:32;23.00;99.90
6293;DHT22;3179;54.350;10.102;2022-08-04T00:22:03;23.00;99.90
6293;DHT22;3179;54.350;10.102;2022-08-04T00:24:33;22.90;99.90
6293;DHT22;3179;54.350;10.102;2022-08-04T00:27:01;22.90;99.90
6293;DHT22;3179;54.350;10.102;2022-08-04T00:29:30;22.90;99.90
6293;DHT22;3179;54.350;10.102;2022-08-04T00:31:58;22.90;99.90
6293;DHT22;3179;54.350;10.102;2022-08-04T00:34:29;22.90;99.90
6293;DHT22;3179;54.350;10.102;2022-08-04T00:36:58;22.90;99.90
6293;DHT22;3179;54.350;10.102;2022-08-04T00:39:26;22.90;99.90
6293;DHT22;3179;54.350;10.102;2022-08-04T00:42:26;22.90;99.90
6293;DHT22;3179;54.350;10.102;2022-08-04T00:45:37;22.90;99.90
6293;DHT22;3179;54.350;10.102;2022-08-04T00:48:15;22.90;99.90
6293;DHT22;3179;54.350;10.102;2022-08-04T00:50:54;23.00;99.90
6293;DHT22;3179;54.350;10.102;2022-08-04T00:53:33;23.00;99.90
6293;DHT22;3179;54.350;10.102;2022-08-04T00:56:21;23.00;99.90
6293;DHT22;3179;54.350;10.102;2022-08-04T00:59:02;23.00;99.90
6293;DHT22;3179;54.350;10.102;2022-08-04T01:01:58;23.00;99.90
6293;DHT22;3179;54.350;10.102;2022-08-04T01:04:37;23.00;99.90
6293;DHT22;3179;54.350;10.102;2022-08-04T01:10:03;23.00;99.90
6293;DHT22;3179;54.350;10.102;2022-08-04T01:15:39;22.90;99.90
6293;DHT22;3179;54.350;10.102;2022-08-04T01:18:13;22.90;99.90
6293;DHT22;3179;54.350;10.102;2022-08-04T01:20:52;22.90;99.90
6293;DHT22;3179;54.350;10.102;2022-08-04T01:24:04;22.90;99.90
6293;DHT22;3179;54.350;10.102;2022-08-04T01:26:47;22.90;99.90
6293;DHT22;3179;54.350;10.102;2022-08-04T01:29:16;22.80;99.90
6293;DHT22;3179;54.350;10.102;2022-08-04T01:32:03;22.80;99.90
6293;DHT22;3179;54.350;10.102;2022-08-04T01:34:34;22.80;99.90
6293;DHT22;3179;54.350;10.102;2022-08-04T01:37:10;22.70;99.90
6293;DHT22;3179;54.350;10.102;2022-08-04T01:39:44;22.70;99.90
6293;DHT22;3179;54.350;10.102;2022-08-04T01:42:17;22.60;99.90
6293;DHT22;3179;54.350;10.102;2022-08-04T01:44:47;22.60;99.90
6293;DHT22;3179;54.350;10.102;2022-08-04T01:47:18;22.60;99.90
6293;DHT22;3179;54.350;10.102;2022-08-04T01:49:48;22.60;99.90
6293;DHT22;3179;54.350;10.102;2022-08-04T01:52:18;22.50;99.90
6293;DHT22;3179;54.350;10.102;2022-08-04T01:54:45;22.50;99.90
6293;DHT22;3179;54.350;10.102;2022-08-04T01:57:14;22.50;99.90
6293;DHT22;3179;54.350;10.102;2022-08-04T01:59:46;22.50;99.90
6293;DHT22;3179;54.350;10.102;2022-08-04T02:02:13;22.40;99.90
6293;DHT22;3179;54.350;10.102;2022-08-04T02:04:41;22.40;99.90
6293;DHT22;3179;54.350;10.102;2022-08-04T02:07:19;22.40;99.90
6293;DHT22;3179;54.350;10.102;2022-08-04T02:09:57;22.40;99.90
6293;DHT22;3179;54.350;10.102;2022-08-04T02:12:39;22.40;99.90
6293;DHT22;3179;54.350;10.102;2022-08-04T02:15:18;22.30;99.90
6293;DHT22;3179;54.350;10.102;2022-08-04T02:17:51;22.20;99.90
6293;DHT22;3179;54.350;10.102;2022-08-04T02:20:22;22.20;99.90
6293;DHT22;3179;54.350;10.102;2022-08-04T02:22:52;22.20;99.90
6293;DHT22;3179;54.350;10.102;2022-08-04T02:25:25;22.10;99.90
6293;DHT22;3179;54.350;10.102;2022-08-04T02:27:55;22.10;99.90
6293;DHT22;3179;54.350;10.102;2022-08-04T02:30:29;22.10;99.90
6293;DHT22;3179;54.350;10.102;2022-08-04T02:33:01;22.10;99.90
6293;DHT22;3179;54.350;10.102;2022-08-04T02:35:33;22.10;99.90
6293;DHT22;3179;54.350;10.102;2022-08-04T02:38:10;22.00;99.90
6293;DHT22;3179;54.350;10.102;2022-08-04T02:40:39;22.00;99.90
6293;DHT22;3179;54.350;10.102;2022-08-04T02:43:08;22.00;99.90
6293;DHT22;3179;54.350;10.102;2022-08-04T02:45:41;22.00;99.90
6293;DHT22;3179;54.350;10.102;2022-08-04T02:48:09;21.90;99.90
6293;DHT22;3179;54.350;10.102;2022-08-04T02:50:38;21.90;99.90
6293;DHT22;3179;54.350;10.102;2022-08-04T02:53:10;21.90;99.90
6293;DHT22;3179;54.350;10.102;2022-08-04T02:55:39;21.90;99.90
6293;DHT22;3179;54.350;10.102;2022-08-04T02:58:07;21.90;99.90
6293;DHT22;3179;54.350;10.102;2022-08-04T03:00:36;21.80;99.90
6293;DHT22;3179;54.350;10.102;2022-08-04T03:03:14;21.80;99.90
6293;DHT22;3179;54.350;10.102;2022-08-04T03:05:57;21.80;99.90
6293;DHT22;3179;54.350;10.102;2022-08-04T03:12:05;21.80;99.90
6293;DHT22;3179;54.350;10.102;2022-08-04T03:14:52;21.80;99.90
6293;DHT22;3179;54.350;10.102;2022-08-04T03:20:48;21.70;99.90
6293;DHT22;3179;54.350;10.102;2022-08-04T03:23:28;21.70;99.90
6293;DHT22;3179;54.350;10.102;2022-08-04T03:26:24;21.70;99.90
6293;DHT22;3179;54.350;10.102;2022-08-04T03:32:36;21.60;99.90
6293;DHT22;3179;54.350;10.102;2022-08-04T03:35:32;21.60;99.90
6293;DHT22;3179;54.350;10.102;2022-08-04T03:38:16;21.60;99.90
6293;DHT22;3179;54.350;10.102;2022-08-04T03:41:07;21.60;99.90
6293;DHT22;3179;54.350;10.102;2022-08-04T03:43:53;21.60;99.90
6293;DHT22;3179;54.350;10.102;2022-08-04T03:46:52;21.60;99.90
6293;DHT22;3179;54.350;10.102;2022-08-04T03:50:04;21.60;99.90
6293;DHT22;3179;54.350;10.102;2022-08-04T03:56:14;21.50;99.90
6293;DHT22;3179;54.350;10.102;2022-08-04T03:59:15;21.50;99.90
6293;DHT22;3179;54.350;10.102;2022-08-04T04:02:17;21.60;99.90
6293;DHT22;3179;54.350;10.102;2022-08-04T04:05:15;21.60;99.90
6293;DHT22;3179;54.350;10.102;2022-08-04T04:08:24;21.60;99.90
6293;DHT22;3179;54.350;10.102;2022-08-04T04:11:14;21.60;99.90
6293;DHT22;3179;54.350;10.102;2022-08-04T04:14:09;21.60;99.90
6293;DHT22;3179;54.350;10.102;2022-08-04T04:16:48;21.70;99.90
6293;DHT22;3179;54.350;10.102;2022-08-04T04:19:26;21.70;99.90
6293;DHT22;3179;54.350;10.102;2022-08-04T04:22:07;21.80;99.90
6293;DHT22;3179;54.350;10.102;2022-08-04T04:25:03;21.80;99.90
6293;DHT22;3179;54.350;10.102;2022-08-04T04:27:47;21.90;99.90
6293;DHT22;3179;54.350;10.102;2022-08-04T04:30:20;21.90;99.90
6293;DHT22;3179;54.350;10.102;2022-08-04T04:33:06;22.00;99.90
6293;DHT22;3179;54.350;10.102;2022-08-04T04:35:51;22.00;99.90
6293;DHT22;3179;54.350;10.102;2022-08-04T04:38:42;22.00;99.90
6293;DHT22;3179;54.350;10.102;2022-08-04T04:41:26;22.10;99.90
6293;DHT22;3179;54.350;10.102;2022-08-04T04:44:22;22.10;99.90
6293;DHT22;3179;54.350;10.102;2022-08-04T04:47:02;22.10;99.90
6293;DHT22;3179;54.350;10.102;2022-08-04T04:49:35;22.10;99.90
6293;DHT22;3179;54.350;10.102;2022-08-04T04:52:07;22.20;99.90
6293;DHT22;3179;54.350;10.102;2022-08-04T04:54:40;22.20;99.90
6293;DHT22;3179;54.350;10.102;2022-08-04T04:57:12;22.20;99.90
6293;DHT22;3179;54.350;10.102;2022-08-04T04:59:45;22.20;99.90
6293;DHT22;3179;54.350;10.102;2022-08-04T05:02:27;22.20;99.90
6293;DHT22;3179;54.350;10.102;2022-08-04T05:05:19;22.20;99.90
6293;DHT22;3179;54.350;10.102;2022-08-04T05:11:08;22.20;99.90
6293;DHT22;3179;54.350;10.102;2022-08-04T05:13:42;22.20;99.90
6293;DHT22;3179;54.350;10.102;2022-08-04T05:16:19;22.20;99.90
6293;DHT22;3179;54.350;10.102;2022-08-04T05:18:51;22.30;99.90
6293;DHT22;3179;54.350;10.102;2022-08-04T05:21:33;22.30;99.90
6293;DHT22;3179;54.350;10.102;2022-08-04T05:24:06;22.40;99.90
6293;DHT22;3179;54.350;10.102;2022-08-04T05:26:39;22.40;99.90
6293;DHT22;3179;54.350;10.102;2022-08-04T05:29:08;22.50;99.90
6293;DHT22;3179;54.350;10.102;2022-08-04T05:31:40;22.50;99.90
6293;DHT22;3179;54.350;10.102;2022-08-04T05:34:11;22.60;99.90
6293;DHT22;3179;54.350;10.102;2022-08-04T05:36:43;22.70;99.90
6293;DHT22;3179;54.350;10.102;2022-08-04T05:39:16;22.70;99.90
6293;DHT22;3179;54.350;10.102;2022-08-04T05:41:46;22.70;99.90
6293;DHT22;3179;54.350;10.102;2022-08-04T05:44:15;22.80;99.90
6293;DHT22;3179;54.350;10.102;2022-08-04T05:46:43;22.80;99.90
6293;DHT22;3179;54.350;10.102;2022-08-04T05:49:12;22.80;99.90
6293;DHT22;3179;54.350;10.102;2022-08-04T05:51:39;22.90;99.90
6293;DHT22;3179;54.350;10.102;2022-08-04T05:54:09;22.90;99.90
6293;DHT22;3179;54.350;10.102;2022-08-04T05:56:36;22.90;99.90
6293;DHT22;3179;54.350;10.102;2022-08-04T05:59:06;22.90;99.90
6293;DHT22;3179;54.350;10.102;2022-08-04T06:01:36;23.00;99.90
6293;DHT22;3179;54.350;10.102;2022-08-04T06:04:04;23.10;99.90
6293;DHT22;3179;54.350;10.102;2022-08-04T06:06:32;23.10;99.90
6293;DHT22;3179;54.350;10.102;2022-08-04T06:09:00;23.20;99.90
6293;DHT22;3179;54.350;10.102;2022-08-04T06:11:27;23.20;99.90
6293;DHT22;3179;54.350;10.102;2022-08-04T06:13:57;23.20;99.90
6293;DHT22;3179;54.350;10.102;2022-08-04T06:16:30;23.30;99.90
6293;DHT22;3179;54.350;10.102;2022-08-04T06:19:03;23.30;99.90
6293;DHT22;3179;54.350;10.102;2022-08-04T06:21:32;23.40;99.90
6293;DHT22;3179;54.350;10.102;2022-08-04T06:24:01;23.40;99.90
6293;DHT22;3179;54.350;10.102;2022-08-04T06:26:32;23.50;99.90
6293;DHT22;3179;54.350;10.102;2022-08-04T06:29:00;23.50;99.90
6293;DHT22;3179;54.350;10.102;2022-08-04T06:31:30;23.60;99.90
6293;DHT22;3179;54.350;10.102;2022-08-04T06:34:08;23.70;99.90
6293;DHT22;3179;54.350;10.102;2022-08-04T06:36:36;23.80;99.90
6293;DHT22;3179;54.350;10.102;2022-08-04T06:39:06;23.80;99.90
6293;DHT22;3179;54.350;10.102;2022-08-04T06:41:34;23.90;99.90
6293;DHT22;3179;54.350;10.102;2022-08-04T06:44:02;23.90;99.90
6293;DHT22;3179;54.350;10.102;2022-08-04T06:46:33;24.00;99.90
6293;DHT22;3179;54.350;10.102;2022-08-04T06:49:00;24.00;99.90
6293;DHT22;3179;54.350;10.102;2022-08-04T06:51:29;24.00;99.90
6293;DHT22;3179;54.350;10.102;2022-08-04T06:53:56;24.10;99.90
6293;DHT22;3179;54.350;10.102;2022-08-04T06:56:24;24.10;99.90
6293;DHT22;3179;54.350;10.102;2022-08-04T06:58:53;24.20;99.90
6293;DHT22;3179;54.350;10.102;2022-08-04T07:01:21;24.20;99.90
6293;DHT22;3179;54.350;10.102;2022-08-04T07:03:50;24.20;99.90
6293;DHT22;3179;54.350;10.102;2022-08-04T07:06:17;24.20;99.90
6293;DHT22;3179;54.350;10.102;2022-08-04T07:08:46;24.30;99.90
6293;DHT22;3179;54.350;10.102;2022-08-04T07:11:14;24.30;99.90
6293;DHT22;3179;54.350;10.102;2022-08-04T07:13:41;24.30;99.90
6293;DHT22;3179;54.350;10.102;2022-08-04T07:16:12;24.30;99.90
6293;DHT22;3179;54.350;10.102;2022-08-04T07:18:40;24.40;99.90
6293;DHT22;3179;54.350;10.102;2022-08-04T07:21:08;24.40;99.90
6293;DHT22;3179;54.350;10.102;2022-08-04T07:23:35;24.50;99.90
6293;DHT22;3179;54.350;10.102;2022-08-04T07:26:02;24.50;99.90
6293;DHT22;3179;54.350;10.102;2022-08-04T07:28:29;24.60;99.90
6293;DHT22;3179;54.350;10.102;2022-08-04T07:30:57;24.60;99.90
6293;DHT22;3179;54.350;10.102;2022-08-04T07:33:24;24.70;99.90
6293;DHT22;3179;54.350;10.102;2022-08-04T07:35:53;24.70;99.90
6293;DHT22;3179;54.350;10.102;2022-08-04T07:38:22;24.70;99.90
6293;DHT22;3179;54.350;10.102;2022-08-04T07:40:49;24.80;99.90
6293;DHT22;3179;54.350;10.102;2022-08-04T07:43:16;24.90;99.90
6293;DHT22;3179;54.350;10.102;2022-08-04T07:45:43;24.90;99.90
6293;DHT22;3179;54.350;10.102;2022-08-04T07:48:10;25.00;99.90
6293;DHT22;3179;54.350;10.102;2022-08-04T07:50:41;25.00;99.90
6293;DHT22;3179;54.350;10.102;2022-08-04T07:53:08;25.10;99.90
6293;DHT22;3179;54.350;10.102;2022-08-04T07:55:39;25.10;99.90
6293;DHT22;3179;54.350;10.102;2022-08-04T07:58:05;25.20;99.90
6293;DHT22;3179;54.350;10.102;2022-08-04T08:00:32;25.30;99.90
6293;DHT22;3179;54.350;10.102;2022-08-04T08:03:00;25.30;99.90
6293;DHT22;3179;54.350;10.102;2022-08-04T08:05:28;25.40;99.90
6293;DHT22;3179;54.350;10.102;2022-08-04T08:07:55;25.40;99.90
6293;DHT22;3179;54.350;10.102;2022-08-04T08:10:23;25.50;99.90
6293;DHT22;3179;54.350;10.102;2022-08-04T08:12:52;25.50;99.90
6293;DHT22;3179;54.350;10.102;2022-08-04T08:15:19;25.60;99.90
6293;DHT22;3179;54.350;10.102;2022-08-04T08:17:46;25.70;99.90
6293;DHT22;3179;54.350;10.102;2022-08-04T08:20:13;25.70;99.90
6293;DHT22;3179;54.350;10.102;2022-08-04T08:22:40;25.80;99.90
6293;DHT22;3179;54.350;10.102;2022-08-04T08:25:07;25.80;99.90
6293;DHT22;3179;54.350;10.102;2022-08-04T08:27:36;25.90;99.90
6293;DHT22;3179;54.350;10.102;2022-08-04T08:30:05;26.00;99.90
6293;DHT22;3179;54.350;10.102;2022-08-04T08:32:33;26.10;99.90
6293;DHT22;3179;54.350;10.102;2022-08-04T08:35:00;26.10;99.90
6293;DHT22;3179;54.350;10.102;2022-08-04T08:37:32;26.20;99.90
6293;DHT22;3179;54.350;10.102;2022-08-04T08:40:15;26.30;99.90
6293;DHT22;3179;54.350;10.102;2022-08-04T08:42:59;26.40;99.90
6293;DHT22;3179;54.350;10.102;2022-08-04T08:45:55;26.40;99.90
6293;DHT22;3179;54.350;10.102;2022-08-04T08:51:39;26.70;99.90
6293;DHT22;3179;54.350;10.102;2022-08-04T08:54:32;26.70;99.90
6293;DHT22;3179;54.350;10.102;2022-08-04T08:57:19;26.90;99.70
6293;DHT22;3179;54.350;10.102;2022-08-04T09:00:00;26.90;99.60
6293;DHT22;3179;54.350;10.102;2022-08-04T09:02:58;27.00;99.20
6293;DHT22;3179;54.350;10.102;2022-08-04T09:06:00;27.20;99.00
6293;DHT22;3179;54.350;10.102;2022-08-04T09:08:46;27.30;98.20
6293;DHT22;3179;54.350;10.102;2022-08-04T09:11:19;27.40;98.40
6293;DHT22;3179;54.350;10.102;2022-08-04T09:13:53;27.50;98.80
6293;DHT22;3179;54.350;10.102;2022-08-04T09:16:32;27.60;98.50
6293;DHT22;3179;54.350;10.102;2022-08-04T09:19:07;27.60;97.90
6293;DHT22;3179;54.350;10.102;2022-08-04T09:21:38;27.70;97.70
6293;DHT22;3179;54.350;10.102;2022-08-04T09:24:10;27.80;97.50
6293;DHT22;3179;54.350;10.102;2022-08-04T09:26:43;27.90;97.10
6293;DHT22;3179;54.350;10.102;2022-08-04T09:29:16;28.00;96.90
6293;DHT22;3179;54.350;10.102;2022-08-04T09:31:52;28.10;96.50
6293;DHT22;3179;54.350;10.102;2022-08-04T09:34:30;28.20;95.80
6293;DHT22;3179;54.350;10.102;2022-08-04T09:37:06;28.30;95.40
6293;DHT22;3179;54.350;10.102;2022-08-04T09:39:48;28.30;95.70
6293;DHT22;3179;54.350;10.102;2022-08-04T09:42:21;28.30;95.50
6293;DHT22;3179;54.350;10.102;2022-08-04T09:44:54;28.40;95.10
6293;DHT22;3179;54.350;10.102;2022-08-04T09:47:28;28.50;94.90
6293;DHT22;3179;54.350;10.102;2022-08-04T09:50:06;28.50;94.70
6293;DHT22;3179;54.350;10.102;2022-08-04T09:52:43;28.60;93.60
6293;DHT22;3179;54.350;10.102;2022-08-04T09:55:17;28.70;94.60
6293;DHT22;3179;54.350;10.102;2022-08-04T09:57:55;28.70;94.10
6293;DHT22;3179;54.350;10.102;2022-08-04T10:00:28;28.80;93.10
6293;DHT22;3179;54.350;10.102;2022-08-04T10:02:59;28.80;94.00
6293;DHT22;3179;54.350;10.102;2022-08-04T10:05:41;28.80;94.10
6293;DHT22;3179;54.350;10.102;2022-08-04T10:08:21;28.90;93.10
6293;DHT22;3179;54.350;10.102;2022-08-04T10:11:02;29.00;92.90
6293;DHT22;3179;54.350;10.102;2022-08-04T10:13:42;29.10;92.70
6293;DHT22;3179;54.350;10.102;2022-08-04T10:16:34;29.20;92.60
6293;DHT22;3179;54.350;10.102;2022-08-04T10:19:13;29.20;91.60
6293;DHT22;3179;54.350;10.102;2022-08-04T10:24:41;29.30;92.20
6293;DHT22;3179;54.350;10.102;2022-08-04T10:27:18;29.40;92.80
6293;DHT22;3179;54.350;10.102;2022-08-04T10:29:47;29.50;93.10
6293;DHT22;3179;54.350;10.102;2022-08-04T10:32:20;29.50;93.00
6293;DHT22;3179;54.350;10.102;2022-08-04T10:35:00;29.50;92.00
6293;DHT22;3179;54.350;10.102;2022-08-04T10:37:33;29.50;91.70
6293;DHT22;3179;54.350;10.102;2022-08-04T10:40:05;29.50;92.10
6293;DHT22;3179;54.350;10.102;2022-08-04T10:42:57;29.60;92.20
6293;DHT22;3179;54.350;10.102;2022-08-04T10:45:32;29.60;91.70
6293;DHT22;3179;54.350;10.102;2022-08-04T10:48:06;29.60;91.60
6293;DHT22;3179;54.350;10.102;2022-08-04T10:50:36;29.60;91.80
6293;DHT22;3179;54.350;10.102;2022-08-04T10:53:10;29.60;91.90
6293;DHT22;3179;54.350;10.102;2022-08-04T10:55:43;29.70;91.60
6293;DHT22;3179;54.350;10.102;2022-08-04T10:58:18;29.70;91.80
6293;DHT22;3179;54.350;10.102;2022-08-04T11:00:46;29.80;91.70
6293;DHT22;3179;54.350;10.102;2022-08-04T11:03:20;29.90;91.90
6293;DHT22;3179;54.350;10.102;2022-08-04T11:05:51;30.10;91.30
6293;DHT22;3179;54.350;10.102;2022-08-04T11:08:24;30.30;91.60
6293;DHT22;3179;54.350;10.102;2022-08-04T11:10:58;30.40;91.50
6293;DHT22;3179;54.350;10.102;2022-08-04T11:13:31;30.50;90.90
6293;DHT22;3179;54.350;10.102;2022-08-04T11:16:04;30.70;91.50
6293;DHT22;3179;54.350;10.102;2022-08-04T11:18:38;30.80;91.10
6293;DHT22;3179;54.350;10.102;2022-08-04T11:21:11;30.90;91.50
6293;DHT22;3179;54.350;10.102;2022-08-04T11:23:43;31.00;90.70
6293;DHT22;3179;54.350;10.102;2022-08-04T11:26:20;31.10;90.20
6293;DHT22;3179;54.350;10.102;2022-08-04T11:28:52;31.20;90.00
6293;DHT22;3179;54.350;10.102;2022-08-04T11:31:27;31.20;89.40
6293;DHT22;3179;54.350;10.102;2022-08-04T11:34:03;31.10;89.70
6293;DHT22;3179;54.350;10.102;2022-08-04T11:36:38;31.10;86.60
6293;DHT22;3179;54.350;10.102;2022-08-04T11:39:13;31.10;87.30
6293;DHT22;3179;54.350;10.102;2022-08-04T11:41:47;31.10;85.80
6293;DHT22;3179;54.350;10.102;2022-08-04T11:44:21;31.10;84.20
6293;DHT22;3179;54.350;10.102;2022-08-04T11:46:52;31.20;86.10
6293;DHT22;3179;54.350;10.102;2022-08-04T11:49:28;31.20;85.40
6293;DHT22;3179;54.350;10.102;2022-08-04T11:51:59;31.30;84.80
6293;DHT22;3179;54.350;10.102;2022-08-04T11:54:27;31.40;84.70
6293;DHT22;3179;54.350;10.102;2022-08-04T11:56:56;31.50;84.80
6293;DHT22;3179;54.350;10.102;2022-08-04T11:59:23;31.50;85.10
6293;DHT22;3179;54.350;10.102;2022-08-04T12:02:05;31.50;84.60
6293;DHT22;3179;54.350;10.102;2022-08-04T12:04:44;31.40;82.40
6293;DHT22;3179;54.350;10.102;2022-08-04T12:07:16;31.30;83.70
6293;DHT22;3179;54.350;10.102;2022-08-04T12:09:52;31.20;84.60
6293;DHT22;3179;54.350;10.102;2022-08-04T12:12:26;31.10;83.00
6293;DHT22;3179;54.350;10.102;2022-08-04T12:14:58;31.10;84.30
6293;DHT22;3179;54.350;10.102;2022-08-04T12:17:39;31.10;84.50
6293;DHT22;3179;54.350;10.102;2022-08-04T12:20:09;31.20;84.50
6293;DHT22;3179;54.350;10.102;2022-08-04T12:22:46;31.20;85.60
6293;DHT22;3179;54.350;10.102;2022-08-04T12:25:19;31.20;85.50
6293;DHT22;3179;54.350;10.102;2022-08-04T12:27:48;31.10;85.80
6293;DHT22;3179;54.350;10.102;2022-08-04T12:30:18;31.10;86.40
6293;DHT22;3179;54.350;10.102;2022-08-04T12:32:52;31.30;86.20
6293;DHT22;3179;54.350;10.102;2022-08-04T12:35:24;31.40;85.20
6293;DHT22;3179;54.350;10.102;2022-08-04T12:37:57;31.50;86.10
6293;DHT22;3179;54.350;10.102;2022-08-04T12:40:32;31.60;85.20
6293;DHT22;3179;54.350;10.102;2022-08-04T12:43:04;31.50;85.80
6293;DHT22;3179;54.350;10.102;2022-08-04T12:45:35;31.50;85.70
6293;DHT22;3179;54.350;10.102;2022-08-04T12:48:08;31.50;86.30
6293;DHT22;3179;54.350;10.102;2022-08-04T12:50:36;31.60;86.00
6293;DHT22;3179;54.350;10.102;2022-08-04T12:53:11;31.60;86.30
6293;DHT22;3179;54.350;10.102;2022-08-04T12:55:46;31.50;85.30
6293;DHT22;3179;54.350;10.102;2022-08-04T12:58:16;31.50;84.80
6293;DHT22;3179;54.350;10.102;2022-08-04T13:00:51;31.60;85.90
6293;DHT22;3179;54.350;10.102;2022-08-04T13:03:20;31.70;86.10
6293;DHT22;3179;54.350;10.102;2022-08-04T13:05:52;31.90;86.10
6293;DHT22;3179;54.350;10.102;2022-08-04T13:08:21;32.00;85.50
6293;DHT22;3179;54.350;10.102;2022-08-04T13:10:52;32.20;86.10
6293;DHT22;3179;54.350;10.102;2022-08-04T13:13:24;32.30;84.70
6293;DHT22;3179;54.350;10.102;2022-08-04T13:15:57;32.50;85.80
6293;DHT22;3179;54.350;10.102;2022-08-04T13:18:26;32.70;85.20
6293;DHT22;3179;54.350;10.102;2022-08-04T13:20:54;32.80;85.40
6293;DHT22;3179;54.350;10.102;2022-08-04T13:23:24;32.90;85.40
6293;DHT22;3179;54.350;10.102;2022-08-04T13:25:55;32.90;84.60
6293;DHT22;3179;54.350;10.102;2022-08-04T13:28:25;33.00;84.40
6293;DHT22;3179;54.350;10.102;2022-08-04T13:30:54;33.10;84.60
6293;DHT22;3179;54.350;10.102;2022-08-04T13:33:22;33.20;84.20
6293;DHT22;3179;54.350;10.102;2022-08-04T13:35:55;33.40;83.90
6293;DHT22;3179;54.350;10.102;2022-08-04T13:38:23;33.40;83.90
6293;DHT22;3179;54.350;10.102;2022-08-04T13:40:52;33.60;84.30
6293;DHT22;3179;54.350;10.102;2022-08-04T13:43:24;33.80;84.00
6293;DHT22;3179;54.350;10.102;2022-08-04T13:45:58;33.90;83.20
6293;DHT22;3179;54.350;10.102;2022-08-04T13:48:30;33.70;82.20
6293;DHT22;3179;54.350;10.102;2022-08-04T13:50:57;33.50;82.90
6293;DHT22;3179;54.350;10.102;2022-08-04T13:53:30;33.30;83.40
6293;DHT22;3179;54.350;10.102;2022-08-04T13:55:59;33.40;83.60
6293;DHT22;3179;54.350;10.102;2022-08-04T13:58:29;33.70;83.40
6293;DHT22;3179;54.350;10.102;2022-08-04T14:00:59;34.00;82.60
6293;DHT22;3179;54.350;10.102;2022-08-04T14:03:29;34.40;82.50
6293;DHT22;3179;54.350;10.102;2022-08-04T14:06:13;34.50;81.90
6293;DHT22;3179;54.350;10.102;2022-08-04T14:08:49;34.20;79.40
6293;DHT22;3179;54.350;10.102;2022-08-04T14:11:29;33.70;80.40
6293;DHT22;3179;54.350;10.102;2022-08-04T14:13:57;33.40;81.30
6293;DHT22;3179;54.350;10.102;2022-08-04T14:16:24;33.10;82.30
6293;DHT22;3179;54.350;10.102;2022-08-04T14:18:58;33.20;82.80
6293;DHT22;3179;54.350;10.102;2022-08-04T14:21:35;33.50;82.50
6293;DHT22;3179;54.350;10.102;2022-08-04T14:24:03;33.60;81.10
6293;DHT22;3179;54.350;10.102;2022-08-04T14:26:33;33.60;82.30
6293;DHT22;3179;54.350;10.102;2022-08-04T14:29:09;33.50;82.10
6293;DHT22;3179;54.350;10.102;2022-08-04T14:31:37;33.40;81.30
6293;DHT22;3179;54.350;10.102;2022-08-04T14:34:05;33.50;82.90
6293;DHT22;3179;54.350;10.102;2022-08-04T14:36:42;33.70;84.60
6293;DHT22;3179;54.350;10.102;2022-08-04T14:39:09;33.70;86.20
6293;DHT22;3179;54.350;10.102;2022-08-04T14:41:49;33.40;86.50
6293;DHT22;3179;54.350;10.102;2022-08-04T14:44:16;33.30;88.30
6293;DHT22;3179;54.350;10.102;2022-08-04T14:46:50;33.30;88.30
6293;DHT22;3179;54.350;10.102;2022-08-04T14:49:18;33.30;89.00
6293;DHT22;3179;54.350;10.102;2022-08-04T14:51:51;33.30;89.20
6293;DHT22;3179;54.350;10.102;2022-08-04T14:54:26;33.40;89.60
6293;DHT22;3179;54.350;10.102;2022-08-04T14:56:57;33.40;89.90
6293;DHT22;3179;54.350;10.102;2022-08-04T14:59:24;33.50;90.10
6293;DHT22;3179;54.350;10.102;2022-08-04T15:01:51;33.50;90.10
6293;DHT22;3179;54.350;10.102;2022-08-04T15:04:18;33.50;90.20
6293;DHT22;3179;54.350;10.102;2022-08-04T15:06:47;33.40;90.10
6293;DHT22;3179;54.350;10.102;2022-08-04T15:09:14;33.30;90.10
6293;DHT22;3179;54.350;10.102;2022-08-04T15:11:41;33.20;90.00
6293;DHT22;3179;54.350;10.102;2022-08-04T15:14:10;33.00;90.10
6293;DHT22;3179;54.350;10.102;2022-08-04T15:16:37;32.80;90.10
6293;DHT22;3179;54.350;10.102;2022-08-04T15:19:06;32.60;90.40
6293;DHT22;3179;54.350;10.102;2022-08-04T15:21:33;32.50;90.40
6293;DHT22;3179;54.350;10.102;2022-08-04T15:24:02;32.30;90.50
6293;DHT22;3179;54.350;10.102;2022-08-04T15:26:34;32.10;90.40
6293;DHT22;3179;54.350;10.102;2022-08-04T15:29:09;32.00;90.30
6293;DHT22;3179;54.350;10.102;2022-08-04T15:31:39;31.90;90.40
6293;DHT22;3179;54.350;10.102;2022-08-04T15:34:07;31.70;90.20
6293;DHT22;3179;54.350;10.102;2022-08-04T15:36:37;31.60;90.20
6293;DHT22;3179;54.350;10.102;2022-08-04T15:39:19;31.50;90.20
6293;DHT22;3179;54.350;10.102;2022-08-04T15:41:54;31.30;90.00
6293;DHT22;3179;54.350;10.102;2022-08-04T15:45:02;31.20;90.10
6293;DHT22;3179;54.350;10.102;2022-08-04T15:47:31;31.10;90.20
6293;DHT22;3179;54.350;10.102;2022-08-04T15:50:07;30.90;90.40
6293;DHT22;3179;54.350;10.102;2022-08-04T15:52:58;30.90;90.60
6293;DHT22;3179;54.350;10.102;2022-08-04T15:55:32;30.80;90.60
6293;DHT22;3179;54.350;10.102;2022-08-04T15:58:00;30.70;90.70
6293;DHT22;3179;54.350;10.102;2022-08-04T16:00:28;30.60;90.80
6293;DHT22;3179;54.350;10.102;2022-08-04T16:03:40;30.60;90.80
6293;DHT22;3179;54.350;10.102;2022-08-04T16:06:40;30.50;91.20
6293;DHT22;3179;54.350;10.102;2022-08-04T16:09:22;30.40;91.40
6293;DHT22;3179;54.350;10.102;2022-08-04T16:11:50;30.40;91.50
6293;DHT22;3179;54.350;10.102;2022-08-04T16:14:30;30.30;91.40
6293;DHT22;3179;54.350;10.102;2022-08-04T16:17:16;30.30;91.70
6293;DHT22;3179;54.350;10.102;2022-08-04T16:19:55;30.30;91.60
6293;DHT22;3179;54.350;10.102;2022-08-04T16:22:33;30.20;91.50
6293;DHT22;3179;54.350;10.102;2022-08-04T16:25:00;30.10;91.50
6293;DHT22;3179;54.350;10.102;2022-08-04T16:27:38;30.00;91.40
6293;DHT22;3179;54.350;10.102;2022-08-04T16:30:06;30.00;91.60
6293;DHT22;3179;54.350;10.102;2022-08-04T16:32:42;29.90;91.40
6293;DHT22;3179;54.350;10.102;2022-08-04T16:35:25;29.80;91.20
6293;DHT22;3179;54.350;10.102;2022-08-04T16:38:09;29.70;91.00
6293;DHT22;3179;54.350;10.102;2022-08-04T16:40:38;29.60;91.30
6293;DHT22;3179;54.350;10.102;2022-08-04T16:43:10;29.50;91.10
6293;DHT22;3179;54.350;10.102;2022-08-04T16:45:51;29.50;91.00
6293;DHT22;3179;54.350;10.102;2022-08-04T16:48:19;29.40;91.00
6293;DHT22;3179;54.350;10.102;2022-08-04T16:50:56;29.40;91.10
6293;DHT22;3179;54.350;10.102;2022-08-04T16:53:25;29.30;91.10
6293;DHT22;3179;54.350;10.102;2022-08-04T16:55:53;29.20;91.20
6293;DHT22;3179;54.350;10.102;2022-08-04T16:58:29;29.20;91.30
6293;DHT22;3179;54.350;10.102;2022-08-04T17:00:57;29.10;91.40